SCC: Watkins Glen qualifying times

Pos Num Class Team Time Gap To 1st Speed --- --- ----- ------------------------------ ---------- ------- ------- ------- 1. 96 GS Turner Motorsport 2:05.600 97.452 2. 18...

Pos Num Class Team                                 Time     Gap  To 1st   Speed
--- --- ----- ------------------------------ ---------- ------- ------- -------
 1.  96 GS    Turner Motorsport                2:05.600                  97.452
 2.  18 GS    Race Prep Motorsports            2:06.050   0.450   0.450  97.104
 3.  17 GS    Doncaster Racing                 2:06.247   0.197   0.647  96.953
 4.  11 GS    Powell Motorsport                2:06.439   0.192   0.839  96.806
 5.  55 GS    Multimatic Motorsports           2:06.443   0.004   0.843  96.803
 6.   5 GS    Blackforest Motorsports          2:06.474   0.031   0.874  96.779
 7.   7 GS    Power Racing Team                2:06.616   0.142   1.016  96.670
 8.  05 GS    Multimatic Motorsports           2:06.997   0.381   1.397  96.380
 9.  81 GS    Synergy Racing                   2:07.128   0.131   1.528  96.281
10.  99 GS    Anchor Racing                    2:07.275   0.147   1.675  96.170
11.  47 GS    TF Racing                        2:07.367   0.092   1.767  96.100
12.  19 GS    Race Prep Motorsports            2:07.427   0.060   1.827  96.055
13.  21 GS    Bodymotion Racing                2:07.588   0.161   1.988  95.934
14.  13 GS    Unitech Racing                   2:07.772   0.184   2.172  95.796
15.   9 GS    Team Salad Racing                2:07.970   0.198   2.370  95.647
16.  15 GS    Frederick Motorsports            2:08.006   0.036   2.406  95.621
17.  09 GS    Automatic Racing                 2:08.037   0.031   2.437  95.597
18.  93 GS    Anchor Racing                    2:08.130   0.093   2.530  95.528
19.  79 GS    Team Salad Racing                2:08.319   0.189   2.719  95.387
20.  92 GS    Anchor Racing                    2:08.325   0.006   2.725  95.383
21.  58 GS    Rehagen Racing                   2:08.462   0.137   2.862  95.281
22.  60 GS    Finlay Motorsports               2:08.467   0.005   2.867  95.277
23.  16 GS    Zoom Motorsports                 2:08.478   0.011   2.878  95.269
24.   6 GS    Zoom Motorsports                 2:08.625   0.147   3.025  95.160
25.  69 GS    Krohn Racing/TRG                 2:08.844   0.219   3.244  94.999
26.  40 GS    Team Sahlen                      2:08.919   0.075   3.319  94.943
27.  90 GS    Automatic Racing                 2:08.932   0.013   3.332  94.934
28.  38 GS    BGB Motorsports                  2:08.974   0.042   3.374  94.903
29.  37 GS    JBS Motorsports                  2:08.978   0.004   3.378  94.900
30.  59 GS    Rehagen Racing                   2:09.372   0.394   3.772  94.611
31.  52 GS    Rehagen Racing                   2:09.744   0.372   4.144  94.340
32.  24 GS    Power Racing Team                2:09.928   0.184   4.328  94.206
33.  89 GS    LNS Motorsports                  2:10.094   0.166   4.494  94.086
34.  42 GS    Team Sahlen                      2:10.096   0.002   4.496  94.084
35.  88 GS    Knobel Racing                    2:10.533   0.437   4.933  93.769
36.  35 GS    Schuitemaker Motorsports         2:10.678   0.145   5.078  93.665
37.  23 GS    Hamilton Safe Motorsports        2:11.354   0.676   5.754  93.183
38.  14 GS    Frederick Motorsports            2:11.380   0.026   5.780  93.165
39.  07 GS    Powell Motorsport                2:12.042   0.662   6.442  92.698
40.  43 GS    Team Sahlen                      2:12.391   0.349   6.791  92.453
41.  27 ST    Bill Fenton Motorsports          2:12.475   0.084   6.875  92.395
42.  32 ST    Franklin American                2:12.966   0.491   7.366  92.054
43.  70 ST    SpeedSource                      2:13.048   0.082   7.448  91.997
44.  00 ST    Georgian Bay Motorsports         2:13.115   0.067   7.515  91.951
45.  34 GS    Schuitemaker Motorsports         2:13.254   0.139   7.654  91.855
46.  95 ST    Turner Motorsports               2:13.288   0.034   7.688  91.831
47.  64 ST    Matt Connolly Motorsports        2:13.291   0.003   7.691  91.829
48.  65 ST    SpeedSource                      2:13.723   0.432   8.123  91.532
49.  49 ST    Southpaw Racing                  2:13.749   0.026   8.149  91.515
50.  06 ST    Compass360/Racing                2:13.760   0.011   8.160  91.507
51.  83 GS    BGB Motorsports                  2:13.806   0.046   8.206  91.476
52.  97 ST    Turner Motorsports               2:14.015   0.209   8.415  91.333
53.  63 GS    Team RPM                         2:14.310   0.295   8.710  91.132
54.  48 ST    WTF Engineering                  2:14.529   0.219   8.929  90.984
55.  29 ST    Bill Fenton Motorsports          2:14.546   0.017   8.946  90.973
56.  12 ST    TC Kline Racing                  2:14.573   0.027   8.973  90.954
57.  71 ST    TC Kline Racing                  2:14.622   0.049   9.022  90.921
58.  36 ST    Compass360/Racing                2:14.979   0.357   9.379  90.681
59.  68 ST    SpeedSource                      2:15.026   0.047   9.426  90.649
60.  46 ST    Franklin American Mortgage       2:15.602   0.576  10.002  90.264
61.  74 ST    Kensai Racing                    2:15.850   0.248  10.250  90.099
62.  94 ST    Radial Motorsports               2:16.101   0.251  10.501  89.933
63.  67 ST    SpeedSource                      2:16.204   0.103  10.604  89.865
64.  39 ST    Matt Connolly Motorsports        2:16.679   0.475  11.079  89.553
65.  66 ST    SpeedSource                      2:16.683   0.004  11.083  89.550
66.  50 ST    Southpaw Racing                  2:16.765   0.082  11.165  89.497
67.  72 ST    Anchor Racing                    2:17.776   1.011  12.176  88.840
68.  51 ST    Fountain Motorsports             2:19.726   1.950  14.126  87.600
69.  62 ST    DEI Racers Group                 2:19.756   0.030  14.156  87.581
70.  20 ST    Nuzzo Motorsports                2:19.820   0.064  14.220  87.541
71.  02 ST    Nuzzo Motorsports                2:19.950   0.130  14.350  87.460
72.  25 ST    HBAR Motorsports                 2:25.805   5.855  20.205  83.948
73.  84 GS    DWW/GorillaRacing.com            2:28.943   3.138  23.343  82.179

Be part of something big

Write a comment
Show comments
About this article
Series Grand-Am
Drivers Matt Connolly , Bill Fenton
Teams Krohn Racing , Rehagen Racing , Turner Motorsport , Team Sahlen , Multimatic Motorsports , Automatic Racing , Bodymotion Racing , SpeedSource